createdAt,value
2022-11-25T00:01:33.110Z,2.48
2022-11-25T00:04:00.174Z,2.37
2022-11-25T00:06:28.293Z,2.39
2022-11-25T00:08:59.729Z,2.34
2022-11-25T00:11:27.103Z,2.32
2022-11-25T00:13:54.606Z,2.31
2022-11-25T00:16:22.315Z,2.32
2022-11-25T00:18:50.562Z,2.32
2022-11-25T00:21:19.998Z,2.33
2022-11-25T00:23:50.970Z,2.29
2022-11-25T00:26:17.971Z,2.26
2022-11-25T00:28:45.786Z,2.23
2022-11-25T00:31:12.598Z,2.24
2022-11-25T00:33:39.531Z,2.28
2022-11-25T00:36:07.916Z,2.30
2022-11-25T00:38:34.738Z,2.28
2022-11-25T00:41:01.531Z,2.25
2022-11-25T00:43:28.313Z,2.31
2022-11-25T00:45:55.198Z,2.39
2022-11-25T00:48:22.100Z,2.38
2022-11-25T00:50:48.857Z,2.43
2022-11-25T00:53:15.659Z,2.39
2022-11-25T00:55:42.576Z,2.41
2022-11-25T00:58:09.386Z,2.33
2022-11-25T01:00:36.193Z,2.38
2022-11-25T01:03:03.180Z,2.41
2022-11-25T01:05:32.780Z,2.45
2022-11-25T01:07:59.564Z,2.44
2022-11-25T01:10:26.392Z,2.42
2022-11-25T01:12:53.191Z,2.42
2022-11-25T01:15:20.022Z,2.46
2022-11-25T01:17:47.354Z,2.46
2022-11-25T01:20:15.944Z,2.43
2022-11-25T01:22:42.759Z,2.37
2022-11-25T01:25:09.535Z,2.33
2022-11-25T01:27:37.213Z,2.36
2022-11-25T01:30:04.175Z,2.39
2022-11-25T01:32:33.351Z,2.39
2022-11-25T01:35:00.121Z,2.30
2022-11-25T01:37:26.997Z,2.18
2022-11-25T01:39:53.826Z,2.10
2022-11-25T01:42:20.673Z,2.16
2022-11-25T01:45:07.412Z,2.23
2022-11-25T01:47:34.228Z,2.19
2022-11-25T01:50:05.017Z,2.15
2022-11-25T01:52:34.009Z,2.12
2022-11-25T01:55:03.024Z,2.12
2022-11-25T01:57:33.242Z,2.22
2022-11-25T02:00:01.940Z,2.18
2022-11-25T02:02:32.428Z,2.08
2022-11-25T02:05:01.490Z,2.10
2022-11-25T02:07:33.854Z,2.12
2022-11-25T02:10:01.898Z,2.12
2022-11-25T02:12:29.140Z,2.19
2022-11-25T02:14:58.894Z,2.20
2022-11-25T02:17:25.737Z,2.16
2022-11-25T02:19:56.109Z,2.10
2022-11-25T02:22:29.056Z,2.07
2022-11-25T02:24:58.224Z,2.11
2022-11-25T02:27:25.084Z,2.05
2022-11-25T02:29:52.131Z,2.09
2022-11-25T02:32:23.132Z,2.08
2022-11-25T02:34:49.999Z,1.98
2022-11-25T02:37:18.884Z,2.01
2022-11-25T02:39:47.368Z,1.97
2022-11-25T02:42:15.112Z,1.93
2022-11-25T02:44:41.939Z,1.89
2022-11-25T02:47:08.755Z,1.96
2022-11-25T02:49:37.678Z,2.00
2022-11-25T02:52:05.392Z,1.94
2022-11-25T02:54:32.239Z,1.88
2022-11-25T02:57:01.077Z,1.94
2022-11-25T02:59:27.981Z,2.02
2022-11-25T03:01:55.321Z,1.99
2022-11-25T03:04:25.715Z,1.99
2022-11-25T03:06:52.535Z,2.02
2022-11-25T03:09:19.315Z,1.93
2022-11-25T03:11:46.260Z,1.91
2022-11-25T03:14:14.415Z,1.91
2022-11-25T03:16:42.566Z,1.89
2022-11-25T03:19:09.560Z,1.81
2022-11-25T03:21:36.346Z,1.77
2022-11-25T03:24:03.169Z,1.83
2022-11-25T03:26:29.955Z,1.69
2022-11-25T03:28:56.888Z,1.58
2022-11-25T03:31:23.833Z,1.58
2022-11-25T03:33:50.677Z,1.58
2022-11-25T03:36:17.477Z,1.52
2022-11-25T03:38:44.325Z,1.58
2022-11-25T03:41:11.193Z,1.58
2022-11-25T03:43:38.169Z,1.63
2022-11-25T03:46:05.312Z,1.66
2022-11-25T03:48:32.562Z,1.71
2022-11-25T03:50:59.546Z,1.77
2022-11-25T03:53:27.699Z,1.76
2022-11-25T03:55:54.538Z,1.73
2022-11-25T03:58:40.180Z,1.64
2022-11-25T04:01:09.301Z,1.62
2022-11-25T04:03:36.164Z,1.63
2022-11-25T04:06:02.989Z,1.64
2022-11-25T04:08:30.765Z,1.63
2022-11-25T04:10:58.455Z,1.55
2022-11-25T04:13:29.371Z,1.49
2022-11-25T04:15:56.735Z,1.49
2022-11-25T04:18:23.543Z,1.49
2022-11-25T04:20:55.149Z,1.45
2022-11-25T04:23:22.077Z,1.52
2022-11-25T04:25:58.223Z,1.50
2022-11-25T04:28:31.544Z,1.56
2022-11-25T04:30:58.623Z,1.57
2022-11-25T04:33:25.643Z,1.59
2022-11-25T04:35:53.167Z,1.62
2022-11-25T04:38:20.725Z,1.68
2022-11-25T04:40:47.941Z,1.72
2022-11-25T04:43:18.722Z,1.78
2022-11-25T04:48:37.238Z,1.77
2022-11-25T04:51:04.373Z,1.81
2022-11-25T04:53:31.655Z,1.84
2022-11-25T04:55:58.562Z,1.80
2022-11-25T04:58:25.540Z,1.77
2022-11-25T05:00:52.389Z,1.74
2022-11-25T05:03:19.387Z,1.80
2022-11-25T05:05:46.229Z,1.82
2022-11-25T05:08:13.040Z,1.85
2022-11-25T05:10:40.602Z,1.86
2022-11-25T05:13:07.905Z,1.92
2022-11-25T05:15:34.733Z,1.92
2022-11-25T05:18:05.099Z,1.97
2022-11-25T05:20:41.507Z,2.00
2022-11-25T05:23:08.333Z,2.02
2022-11-25T05:25:35.309Z,2.03
2022-11-25T05:28:24.746Z,2.01
2022-11-25T05:30:51.641Z,1.99
2022-11-25T05:33:18.625Z,1.96
2022-11-25T05:35:53.077Z,1.96
2022-11-25T05:38:19.936Z,1.94
2022-11-25T05:40:46.948Z,1.88
2022-11-25T05:43:15.444Z,1.88
2022-11-25T05:45:43.192Z,1.83
2022-11-25T05:48:12.296Z,1.78
2022-11-25T05:50:39.558Z,1.76
2022-11-25T05:53:16.045Z,1.80
2022-11-25T05:55:53.367Z,1.81
2022-11-25T05:58:28.464Z,1.85
2022-11-25T06:00:57.857Z,1.86
2022-11-25T06:03:25.236Z,1.81
2022-11-25T06:05:52.262Z,1.84
2022-11-25T06:08:20.060Z,1.93
2022-11-25T06:10:47.253Z,1.96
2022-11-25T06:13:14.097Z,2.01
2022-11-25T06:15:41.899Z,2.06
2022-11-25T06:18:09.668Z,2.12
2022-11-25T06:20:36.542Z,2.18
2022-11-25T06:23:03.957Z,2.23
2022-11-25T06:25:33.570Z,2.25
2022-11-25T06:28:16.252Z,2.26
2022-11-25T06:30:47.909Z,2.23
2022-11-25T06:33:24.797Z,2.24
2022-11-25T06:35:51.774Z,2.29
2022-11-25T06:38:18.566Z,2.35
2022-11-25T06:40:45.383Z,2.37
2022-11-25T06:43:12.165Z,2.39
2022-11-25T06:45:39.004Z,2.46
2022-11-25T06:48:05.791Z,2.50
2022-11-25T06:50:32.577Z,2.53
2022-11-25T06:53:00.626Z,2.58
2022-11-25T06:55:27.407Z,2.57
2022-11-25T06:58:08.422Z,2.55
2022-11-25T07:00:40.965Z,2.59
2022-11-25T07:03:07.753Z,2.57
2022-11-25T07:05:34.571Z,2.59
2022-11-25T07:08:01.359Z,2.65
2022-11-25T07:10:28.121Z,2.73
2022-11-25T07:12:54.894Z,2.81
2022-11-25T07:15:21.682Z,2.88
2022-11-25T07:17:48.443Z,2.93
2022-11-25T07:20:15.276Z,2.97
2022-11-25T07:22:42.041Z,2.90
2022-11-25T07:25:09.115Z,2.95
2022-11-25T07:27:35.911Z,2.98
2022-11-25T07:30:54.563Z,3.03
2022-11-25T07:32:49.493Z,3.06
2022-11-25T07:35:16.304Z,3.11
2022-11-25T07:37:43.107Z,3.15
2022-11-25T07:40:10.096Z,3.16
2022-11-25T07:42:36.885Z,3.25
2022-11-25T07:45:04.623Z,3.18
2022-11-25T07:47:44.192Z,3.16
2022-11-25T07:50:11.090Z,3.10
2022-11-25T07:52:38.562Z,3.03
2022-11-25T07:55:05.538Z,3.05
2022-11-25T07:57:32.350Z,3.03
2022-11-25T07:59:59.149Z,3.11
2022-11-25T08:02:26.137Z,3.21
2022-11-25T08:04:53.118Z,3.28
2022-11-25T08:07:19.938Z,3.37
2022-11-25T08:09:46.722Z,3.47
2022-11-25T08:12:13.570Z,3.57
2022-11-25T08:14:40.395Z,3.63
2022-11-25T08:17:07.193Z,3.59
2022-11-25T08:19:34.055Z,3.62
2022-11-25T08:22:00.859Z,3.70
2022-11-25T08:24:27.630Z,3.69
2022-11-25T08:26:54.399Z,3.80
2022-11-25T08:29:21.186Z,3.81
2022-11-25T08:31:48.048Z,3.87
2022-11-25T08:34:19.343Z,3.92
2022-11-25T08:36:48.777Z,3.95
2022-11-25T08:42:03.843Z,3.96
2022-11-25T08:44:30.694Z,3.98
2022-11-25T08:46:58.586Z,4.06
2022-11-25T08:49:25.455Z,4.07
2022-11-25T08:51:52.425Z,4.17
2022-11-25T08:54:19.186Z,4.20
2022-11-25T08:56:46.004Z,4.31
2022-11-25T08:59:12.779Z,4.30
2022-11-25T09:01:39.616Z,4.38
2022-11-25T09:04:06.514Z,4.42
2022-11-25T09:06:33.327Z,4.52
2022-11-25T09:09:00.150Z,4.59
2022-11-25T09:11:27.180Z,4.66
2022-11-25T09:13:54.168Z,4.68
2022-11-25T09:16:21.135Z,4.79
2022-11-25T09:18:52.357Z,4.75
2022-11-25T09:21:22.332Z,4.75
2022-11-25T09:23:50.115Z,4.77
2022-11-25T09:26:21.850Z,4.72
2022-11-25T09:28:48.630Z,4.83
2022-11-25T09:31:15.600Z,4.81
2022-11-25T09:33:42.490Z,4.91
2022-11-25T09:36:09.338Z,4.98
2022-11-25T09:38:40.261Z,5.02
2022-11-25T09:41:15.644Z,5.01
2022-11-25T09:43:45.453Z,5.02
2022-11-25T09:46:31.211Z,5.05
2022-11-25T09:49:00.233Z,5.04
2022-11-25T09:51:39.016Z,5.05
2022-11-25T09:54:14.668Z,5.08
2022-11-25T09:56:42.715Z,5.10
2022-11-25T09:59:38.941Z,5.02
2022-11-25T10:02:32.443Z,5.04
2022-11-25T10:05:02.919Z,5.06
2022-11-25T10:07:34.716Z,5.15
2022-11-25T10:10:05.265Z,5.13
2022-11-25T10:12:37.763Z,5.11
2022-11-25T10:15:07.752Z,5.21
2022-11-25T10:17:46.764Z,5.26
2022-11-25T10:20:21.384Z,5.33
2022-11-25T10:22:49.788Z,5.36
2022-11-25T10:25:37.371Z,5.35
2022-11-25T10:28:10.293Z,5.38
2022-11-25T10:30:50.061Z,5.39
2022-11-25T10:33:19.510Z,5.46
2022-11-25T10:35:49.331Z,5.51
2022-11-25T10:38:26.192Z,5.58
2022-11-25T10:40:54.594Z,5.66
2022-11-25T10:43:21.395Z,5.64
2022-11-25T10:45:57.391Z,5.70
2022-11-25T10:48:44.416Z,5.84
2022-11-25T10:51:27.124Z,5.97
2022-11-25T10:54:14.851Z,6.01
2022-11-25T10:56:45.950Z,6.09
2022-11-25T10:59:13.510Z,6.06
2022-11-25T11:01:40.337Z,6.02
2022-11-25T11:04:11.877Z,6.08
2022-11-25T11:06:40.289Z,6.10
2022-11-25T11:09:27.122Z,6.09
2022-11-25T11:11:53.911Z,6.20
2022-11-25T11:14:21.454Z,6.22
2022-11-25T11:16:55.322Z,6.30
2022-11-25T11:19:24.161Z,6.33
2022-11-25T11:21:51.426Z,6.46
2022-11-25T11:24:28.946Z,6.50
2022-11-25T11:27:06.854Z,6.53
2022-11-25T11:29:34.158Z,6.52
2022-11-25T11:32:02.800Z,6.60
2022-11-25T11:35:08.177Z,6.64
2022-11-25T11:37:42.746Z,6.65
2022-11-25T11:40:18.766Z,6.52
2022-11-25T11:42:45.527Z,6.59
2022-11-25T11:45:24.319Z,6.52
2022-11-25T11:48:10.055Z,6.58
2022-11-25T11:50:40.950Z,6.58
2022-11-25T11:53:26.342Z,6.60
2022-11-25T11:56:19.090Z,6.64
2022-11-25T11:58:55.068Z,6.65
2022-11-25T12:01:29.348Z,6.70
2022-11-25T12:04:15.175Z,6.67
2022-11-25T12:06:43.628Z,6.58
2022-11-25T12:09:13.573Z,6.60
2022-11-25T12:11:43.789Z,6.44
2022-11-25T12:14:14.458Z,6.47
2022-11-25T12:16:50.463Z,6.30
2022-11-25T12:19:23.257Z,6.34
2022-11-25T12:21:53.298Z,6.28
2022-11-25T12:24:31.294Z,6.25
2022-11-25T12:27:03.553Z,6.25
2022-11-25T12:29:39.091Z,6.36
2022-11-25T12:32:28.590Z,6.38
2022-11-25T12:35:00.882Z,6.41
2022-11-25T12:37:32.060Z,6.48
2022-11-25T12:40:14.326Z,6.56
2022-11-25T12:42:41.790Z,6.60
2022-11-25T12:45:25.651Z,6.61
2022-11-25T12:47:53.222Z,6.65
2022-11-25T12:50:24.615Z,6.72
2022-11-25T12:53:02.179Z,6.69
2022-11-25T12:55:30.456Z,6.81
2022-11-25T12:57:57.262Z,6.93
2022-11-25T13:03:24.196Z,6.94
2022-11-25T13:06:03.277Z,6.86
2022-11-25T13:08:30.098Z,6.85
2022-11-25T13:11:16.473Z,6.84
2022-11-25T13:13:50.696Z,6.82
2022-11-25T13:16:19.967Z,6.93
2022-11-25T13:18:47.196Z,7.03
2022-11-25T13:21:15.597Z,7.06
2022-11-25T13:23:49.010Z,7.13
2022-11-25T13:26:28.544Z,7.16
2022-11-25T13:28:56.111Z,7.18
2022-11-25T13:31:25.414Z,7.26
2022-11-25T13:33:58.027Z,7.27
2022-11-25T13:36:42.627Z,7.38
2022-11-25T13:39:29.791Z,7.33
2022-11-25T13:41:59.417Z,7.47
2022-11-25T13:44:34.215Z,7.44
2022-11-25T13:47:20.131Z,7.42
2022-11-25T13:49:49.633Z,7.49
2022-11-25T13:52:32.101Z,7.53
2022-11-25T13:55:00.606Z,7.46
2022-11-25T13:57:29.254Z,7.38
2022-11-25T14:00:00.818Z,7.27
2022-11-25T14:02:27.873Z,7.23
2022-11-25T14:04:57.898Z,7.18
2022-11-25T14:07:30.914Z,7.12
2022-11-25T14:10:07.619Z,7.17
2022-11-25T14:12:52.284Z,7.17
2022-11-25T14:15:22.113Z,7.16
2022-11-25T14:18:12.576Z,7.09
2022-11-25T14:20:45.402Z,7.01
2022-11-25T14:23:22.423Z,6.94
2022-11-25T14:25:51.841Z,6.90
2022-11-25T14:28:21.504Z,6.95
2022-11-25T14:30:53.597Z,6.96
2022-11-25T14:33:25.353Z,6.93
2022-11-25T14:35:55.465Z,6.92
2022-11-25T14:38:25.331Z,6.92
2022-11-25T14:40:55.157Z,6.93
2022-11-25T14:43:23.753Z,6.89
2022-11-25T14:46:09.133Z,6.80
2022-11-25T14:48:36.334Z,6.81
2022-11-25T14:51:07.525Z,6.82
2022-11-25T14:53:41.803Z,6.81
2022-11-25T14:56:14.174Z,6.72
2022-11-25T14:58:42.080Z,6.71
2022-11-25T15:01:17.316Z,6.66
2022-11-25T15:03:46.355Z,6.55
2022-11-25T15:06:13.973Z,6.40
2022-11-25T15:08:44.714Z,6.30
2022-11-25T15:11:17.225Z,6.31
2022-11-25T15:13:47.669Z,6.31
2022-11-25T15:16:16.585Z,6.29
2022-11-25T15:19:06.586Z,6.22
2022-11-25T15:22:00.077Z,6.15
2022-11-25T15:24:27.458Z,6.11
2022-11-25T15:26:58.739Z,6.08
2022-11-25T15:29:26.322Z,6.12
2022-11-25T15:31:54.247Z,6.15
2022-11-25T15:34:22.603Z,6.17
2022-11-25T15:36:54.198Z,6.18
2022-11-25T15:39:21.397Z,6.18
2022-11-25T15:41:56.180Z,6.19
2022-11-25T15:44:34.056Z,6.23
2022-11-25T15:47:02.654Z,6.21
2022-11-25T15:49:30.084Z,6.16
2022-11-25T15:52:00.529Z,6.15
2022-11-25T15:54:41.997Z,6.14
2022-11-25T15:57:16.565Z,6.18
2022-11-25T15:59:46.136Z,6.19
2022-11-25T16:02:28.699Z,6.18
2022-11-25T16:05:14.111Z,6.18
2022-11-25T16:07:41.020Z,6.17
2022-11-25T16:10:17.261Z,6.21
2022-11-25T16:12:45.107Z,6.16
2022-11-25T16:15:18.058Z,6.06
2022-11-25T16:17:47.215Z,6.09
2022-11-25T16:20:18.349Z,6.13
2022-11-25T16:22:46.570Z,6.12
2022-11-25T16:25:16.063Z,6.16
2022-11-25T16:27:43.924Z,6.17
2022-11-25T16:30:18.541Z,6.22
2022-11-25T16:32:45.473Z,6.26
2022-11-25T16:35:16.351Z,6.29
2022-11-25T16:37:48.861Z,6.28
2022-11-25T16:40:17.648Z,6.32
2022-11-25T16:42:49.271Z,6.34
2022-11-25T16:45:19.804Z,6.35
2022-11-25T16:47:46.642Z,6.23
2022-11-25T16:50:14.546Z,6.29
2022-11-25T16:52:41.918Z,6.29
2022-11-25T16:55:09.057Z,6.32
2022-11-25T16:57:36.658Z,6.38
2022-11-25T17:00:04.781Z,6.42
2022-11-25T17:02:31.656Z,6.48
2022-11-25T17:04:58.791Z,6.50
2022-11-25T17:07:32.743Z,6.52
2022-11-25T17:10:00.471Z,6.48
2022-11-25T17:12:29.286Z,6.40
2022-11-25T17:14:56.251Z,6.43
2022-11-25T17:17:25.088Z,6.39
2022-11-25T17:19:52.829Z,6.35
2022-11-25T17:22:20.941Z,6.30
2022-11-25T17:24:47.915Z,6.21
2022-11-25T17:27:25.177Z,6.04
2022-11-25T17:29:52.458Z,6.03
2022-11-25T17:32:19.685Z,6.10
2022-11-25T17:34:46.674Z,6.13
2022-11-25T17:37:18.545Z,6.09
2022-11-25T17:39:45.638Z,6.17
2022-11-25T17:42:16.787Z,6.21
2022-11-25T17:44:44.331Z,6.23
2022-11-25T17:47:17.466Z,6.28
2022-11-25T17:49:44.467Z,6.23
2022-11-25T17:52:13.290Z,6.25
2022-11-25T17:54:40.515Z,6.20
2022-11-25T17:57:11.296Z,6.22
2022-11-25T17:59:38.225Z,6.17
2022-11-25T18:02:17.791Z,6.14
2022-11-25T18:04:44.880Z,6.13
2022-11-25T18:07:12.825Z,6.09
2022-11-25T18:09:39.717Z,6.11
2022-11-25T18:12:15.215Z,6.10
2022-11-25T18:14:42.308Z,6.06
2022-11-25T18:17:12.682Z,6.04
2022-11-25T18:19:40.467Z,5.99
2022-11-25T18:22:14.358Z,6.00
2022-11-25T18:24:42.150Z,6.00
2022-11-25T18:27:14.819Z,5.99
2022-11-25T18:29:41.691Z,6.02
2022-11-25T18:32:09.509Z,6.05
2022-11-25T18:34:36.794Z,6.05
2022-11-25T18:37:03.878Z,6.03
2022-11-25T18:39:30.786Z,6.04
2022-11-25T18:41:58.619Z,5.97
2022-11-25T18:44:26.952Z,5.96
2022-11-25T18:46:54.041Z,5.94
2022-11-25T18:49:21.238Z,5.99
2022-11-25T18:51:48.138Z,6.01
2022-11-25T18:54:15.096Z,5.99
2022-11-25T18:56:41.971Z,5.96
2022-11-25T18:59:13.866Z,5.98
2022-11-25T19:01:43.265Z,5.95
2022-11-25T19:04:17.353Z,5.92
2022-11-25T19:06:44.526Z,5.93
2022-11-25T19:09:14.787Z,5.92
2022-11-25T19:11:43.636Z,5.94
2022-11-25T19:14:13.101Z,5.93
2022-11-25T19:16:40.243Z,5.91
2022-11-25T19:19:10.542Z,5.91
2022-11-25T19:21:37.444Z,5.90
2022-11-25T19:24:06.596Z,5.86
2022-11-25T19:26:38.719Z,5.81
2022-11-25T19:29:06.945Z,5.88
2022-11-25T19:31:37.203Z,5.82
2022-11-25T19:34:04.402Z,5.79
2022-11-25T19:36:32.244Z,5.74
2022-11-25T19:38:59.080Z,5.69
2022-11-25T19:41:25.861Z,5.67
2022-11-25T19:43:52.701Z,5.69
2022-11-25T19:46:30.229Z,5.72
2022-11-25T19:49:04.759Z,5.75
2022-11-25T19:51:33.403Z,5.77
2022-11-25T19:54:00.315Z,5.73
2022-11-25T19:56:27.135Z,5.71
2022-11-25T19:58:54.389Z,5.71
2022-11-25T20:01:25.314Z,5.67
2022-11-25T20:03:52.308Z,5.64
2022-11-25T20:06:19.559Z,5.58
2022-11-25T20:08:46.949Z,5.52
2022-11-25T20:11:17.606Z,5.42
2022-11-25T20:13:45.458Z,5.35
2022-11-25T20:16:14.618Z,5.24
2022-11-25T20:18:41.562Z,5.20
2022-11-25T20:21:12.763Z,5.13
2022-11-25T20:23:44.003Z,5.09
2022-11-25T20:26:22.799Z,5.11
2022-11-25T20:28:49.738Z,5.09
2022-11-25T20:31:16.738Z,5.05
2022-11-25T20:33:43.766Z,5.11
2022-11-25T20:36:15.622Z,5.10
2022-11-25T20:38:45.562Z,5.02
2022-11-25T20:41:12.551Z,5.05
2022-11-25T20:43:40.641Z,4.98
2022-11-25T20:46:14.921Z,5.00
2022-11-25T20:48:42.119Z,4.98
2022-11-25T20:51:16.418Z,4.98
2022-11-25T20:53:44.975Z,5.01
2022-11-25T20:56:14.248Z,4.95
2022-11-25T20:58:41.255Z,4.95
2022-11-25T21:01:09.123Z,4.85
2022-11-25T21:03:35.963Z,4.85
2022-11-25T21:06:12.260Z,4.86
2022-11-25T21:08:39.359Z,4.84
2022-11-25T21:11:06.179Z,4.81
2022-11-25T21:13:32.968Z,4.79
2022-11-25T21:15:59.897Z,4.71
2022-11-25T21:18:29.934Z,4.66
2022-11-25T21:20:57.472Z,4.71
2022-11-25T21:23:27.342Z,4.77
2022-11-25T21:25:57.040Z,4.82
2022-11-25T21:28:25.164Z,4.86
2022-11-25T21:30:52.098Z,4.85
2022-11-25T21:33:18.938Z,4.83
2022-11-25T21:35:47.774Z,4.85
2022-11-25T21:38:16.740Z,4.78
2022-11-25T21:40:47.969Z,4.73
2022-11-25T21:43:24.810Z,4.61
2022-11-25T21:46:03.120Z,4.59
2022-11-25T21:48:29.979Z,4.59
2022-11-25T21:50:56.949Z,4.61
2022-11-25T21:53:23.887Z,4.59
2022-11-25T21:55:51.823Z,4.60
2022-11-25T21:58:24.560Z,4.61
2022-11-25T22:00:52.899Z,4.63
2022-11-25T22:03:23.679Z,4.70
2022-11-25T22:05:51.532Z,4.74
2022-11-25T22:08:22.134Z,4.78
2022-11-25T22:10:52.952Z,4.81
2022-11-25T22:13:27.258Z,4.88
2022-11-25T22:15:57.316Z,4.86
2022-11-25T22:18:36.695Z,4.85
2022-11-25T22:21:19.046Z,4.90
2022-11-25T22:23:45.975Z,4.91
2022-11-25T22:26:18.430Z,4.91
2022-11-25T22:28:47.687Z,4.92
2022-11-25T22:31:15.054Z,4.96
2022-11-25T22:33:41.892Z,4.92
2022-11-25T22:36:27.463Z,4.93
2022-11-25T22:38:54.404Z,4.99
2022-11-25T22:41:21.225Z,4.93
2022-11-25T22:43:50.633Z,4.87
2022-11-25T22:46:18.119Z,4.87
2022-11-25T22:48:44.967Z,4.88
2022-11-25T22:51:16.107Z,4.85
2022-11-25T22:53:44.118Z,4.89
2022-11-25T22:56:17.980Z,4.88
2022-11-25T22:58:45.028Z,4.93
2022-11-25T23:01:15.982Z,4.92
2022-11-25T23:03:43.449Z,4.93
2022-11-25T23:06:11.562Z,4.88
2022-11-25T23:08:38.417Z,4.86
2022-11-25T23:11:05.265Z,4.88
2022-11-25T23:13:32.166Z,4.90
2022-11-25T23:16:00.171Z,4.92
2022-11-25T23:18:32.899Z,4.87
2022-11-25T23:21:04.234Z,4.89
2022-11-25T23:23:31.401Z,4.87
2022-11-25T23:25:59.213Z,4.89
2022-11-25T23:28:26.327Z,4.90
2022-11-25T23:30:57.364Z,4.89
2022-11-25T23:33:38.228Z,4.86
2022-11-25T23:36:09.082Z,4.83
2022-11-25T23:38:41.215Z,4.86
2022-11-25T23:41:18.974Z,4.88
2022-11-25T23:43:45.769Z,4.87
2022-11-25T23:46:18.375Z,4.90
2022-11-25T23:48:47.811Z,4.89
2022-11-25T23:51:14.623Z,4.94
2022-11-25T23:53:41.450Z,4.92
2022-11-25T23:56:08.347Z,4.84
2022-11-25T23:58:35.139Z,4.86
